Aérodrome :
LOGIN :

S'inscrire | Disclaimer

   EN    FR    IT 

 










Légende :    VFR   VFR Marginal   IFR   IFR Intensif   IFR Très Intensif
Visi : 
Plafond : 
>= 8 km
>= 3000ft
5 à 8 km
1000 à 3000 ft
1500m à 5 km
500 à 1000 ft
800 à 1500m
200 à 500 ft
< 800m
< 200 ft
Symboles :   Orages  Brouillard  Fortes neiges  Fortes précipitations  Vent > 20 kt
SIGMETs :   Divers  Orages  Givrage  Turbulence  Onde Orograph.  Cendres Volcan.







- Altitude de l'aérodrome : 584 ft
- Voir les cartes d'approche


LFPV - Villacoublay Vélizy

DERNIER METAR :
  • 181800Z AUTO 15002KT CAVOK 04/02 Q1022 NOSIG

METARs EXPIRÉS :
  • 181730Z AUTO 18002KT CAVOK 05/01 Q1022 NOSIG
  • 181700Z AUTO 16003KT CAVOK 06/02 Q1022 NOSIG
  • 181630Z AUTO 15005KT CAVOK 07/02 Q1022 NOSIG
  • 181600Z AUTO 14005KT 110V180 CAVOK 07/02 Q1022 NOSIG
  • 181530Z AUTO 14005KT 100V180 CAVOK 07/02 Q1023 NOSIG

TAF TAF LFPV
Valide du 18 à 15h jusqu'au 19 à 15h UTC


181400Z 1815/1915 15005KT CAVOK
PROB30
TEMPO 1900/1907 2000 BR
BECMG 1907/1909 BKN017
PROB40
TEMPO 1909/1915 4000 -RA BKN014
Pas de NOTAMs connus pour ce terrain.



MET'MAP, la Météo Aéronautique d'un coup d'oeil ! - Copyright ORBIFLY Décembre 2007 - Disclaimer

ORBIFLY MET'MAP TEAM :

Programmation & Développement : Alexandra Zaïnal
Conception & Développement : Baudouin d'Aumeries
Co-Programmation & Développement : Marc-Olivier Méhu
Soutien technique & logistique : Manuel Goepfert

Contact : metmap@orbifly.com




SOURCES & CREDITS :

   NOAA